createdAt,value
2023-04-28T00:00:21.787Z,2.20
2023-04-28T00:02:49.380Z,1.83
2023-04-28T00:05:16.556Z,1.80
2023-04-28T00:07:43.712Z,1.97
2023-04-28T00:10:10.792Z,1.97
2023-04-28T00:12:38.100Z,1.63
2023-04-28T00:15:05.222Z,1.80
2023-04-28T00:17:32.134Z,1.90
2023-04-28T00:19:59.196Z,1.40
2023-04-28T00:22:26.110Z,1.93
2023-04-28T00:24:53.102Z,1.67
2023-04-28T00:27:20.764Z,1.80
2023-04-28T00:29:47.649Z,1.37
2023-04-28T00:32:14.559Z,1.70
2023-04-28T00:34:41.519Z,1.37
2023-04-28T00:37:08.362Z,1.80
2023-04-28T00:39:35.192Z,1.30
2023-04-28T00:42:02.534Z,1.50
2023-04-28T00:44:29.509Z,1.50
2023-04-28T00:46:57.828Z,1.37
2023-04-28T00:49:24.680Z,1.30
2023-04-28T00:51:51.481Z,1.20
2023-04-28T00:54:18.770Z,1.20
2023-04-28T00:56:45.755Z,1.23
2023-04-28T00:59:12.657Z,1.20
2023-04-28T01:01:39.505Z,1.07
2023-04-28T01:04:06.597Z,0.90
2023-04-28T01:06:34.080Z,1.47
2023-04-28T01:09:00.980Z,1.10
2023-04-28T01:11:27.791Z,1.30
2023-04-28T01:13:54.830Z,0.97
2023-04-28T01:16:21.710Z,0.67
2023-04-28T01:18:48.800Z,0.90
2023-04-28T01:21:15.893Z,0.63
2023-04-28T01:23:46.742Z,0.90
2023-04-28T01:26:13.648Z,1.07
2023-04-28T01:28:40.636Z,0.90
2023-04-28T01:31:07.462Z,0.70
2023-04-28T01:33:34.330Z,0.70
2023-04-28T01:36:01.174Z,0.77
2023-04-28T01:38:28.001Z,0.90
2023-04-28T01:40:55.764Z,0.83
2023-04-28T01:43:22.750Z,0.70
2023-04-28T01:45:49.634Z,0.60
2023-04-28T01:48:16.438Z,0.60
2023-04-28T01:50:43.388Z,0.90
2023-04-28T01:53:10.229Z,0.80
2023-04-28T01:55:38.481Z,0.70
2023-04-28T01:58:05.407Z,0.73
2023-04-28T02:00:32.234Z,0.87
2023-04-28T02:02:59.171Z,0.70
2023-04-28T02:05:26.379Z,0.60
2023-04-28T02:07:53.202Z,0.67
2023-04-28T02:10:20.123Z,0.70
2023-04-28T02:12:46.956Z,0.67
2023-04-28T02:15:14.295Z,0.90
2023-04-28T02:17:41.443Z,0.70
2023-04-28T02:20:09.057Z,0.80
2023-04-28T02:22:36.042Z,0.80
2023-04-28T02:25:03.572Z,0.80
2023-04-28T02:27:30.543Z,0.73
2023-04-28T02:29:57.710Z,0.80
2023-04-28T02:32:24.600Z,0.97
2023-04-28T02:34:55.634Z,0.80
2023-04-28T02:37:22.558Z,0.67
2023-04-28T02:39:49.468Z,0.83
2023-04-28T02:42:16.449Z,1.00
2023-04-28T02:44:43.236Z,1.43
2023-04-28T02:47:10.163Z,0.83
2023-04-28T02:49:36.971Z,0.83
2023-04-28T02:52:03.865Z,0.73
2023-04-28T02:54:31.018Z,0.90
2023-04-28T02:56:58.526Z,1.20
2023-04-28T02:59:25.646Z,1.03
2023-04-28T03:01:52.477Z,1.13
2023-04-28T03:04:19.926Z,1.30
2023-04-28T03:06:47.613Z,1.23
2023-04-28T03:09:14.928Z,1.30
2023-04-28T03:11:41.944Z,1.50
2023-04-28T03:14:08.778Z,2.00
2023-04-28T03:16:35.647Z,1.63
2023-04-28T03:19:02.525Z,1.50
2023-04-28T03:21:29.889Z,1.50
2023-04-28T03:23:56.685Z,1.47
2023-04-28T03:26:23.592Z,1.40
2023-04-28T03:28:50.460Z,1.50
2023-04-28T03:31:17.245Z,1.37
2023-04-28T03:33:45.768Z,1.73
2023-04-28T03:36:12.727Z,1.50
2023-04-28T03:38:39.631Z,1.73
2023-04-28T03:41:06.480Z,1.50
2023-04-28T03:43:35.609Z,1.80
2023-04-28T03:46:02.640Z,1.40
2023-04-28T03:48:29.466Z,1.43
2023-04-28T03:50:56.328Z,1.40
2023-04-28T03:53:23.132Z,1.83
2023-04-28T03:55:50.001Z,1.97
2023-04-28T03:58:17.035Z,1.57
2023-04-28T04:00:43.856Z,1.73
2023-04-28T04:03:10.865Z,1.70
2023-04-28T04:05:40.367Z,1.60
2023-04-28T04:08:07.266Z,1.90
2023-04-28T04:10:34.045Z,1.80
2023-04-28T04:13:00.926Z,1.90
2023-04-28T04:15:27.744Z,2.17
2023-04-28T04:17:54.662Z,2.17
2023-04-28T04:20:21.485Z,2.07
2023-04-28T04:22:48.303Z,2.00
2023-04-28T04:25:15.182Z,2.20
2023-04-28T04:27:41.993Z,1.93
2023-04-28T04:30:09.353Z,1.90
2023-04-28T04:32:36.199Z,2.03
2023-04-28T04:35:03.065Z,2.30
2023-04-28T04:37:29.972Z,2.80
2023-04-28T04:39:56.736Z,3.00
2023-04-28T04:42:25.990Z,2.67
2023-04-28T04:44:53.135Z,3.00
2023-04-28T04:47:20.471Z,2.87
2023-04-28T04:49:49.084Z,3.60
2023-04-28T04:52:15.995Z,2.90
2023-04-28T04:54:42.890Z,2.50
2023-04-28T04:57:09.948Z,2.20
2023-04-28T04:59:36.809Z,2.93
2023-04-28T05:02:03.670Z,3.33
2023-04-28T05:04:30.662Z,3.00
2023-04-28T05:06:57.603Z,3.27
2023-04-28T05:09:24.435Z,3.30
2023-04-28T05:11:51.290Z,3.00
2023-04-28T05:14:18.492Z,3.20
2023-04-28T05:16:45.684Z,3.20
2023-04-28T05:19:12.551Z,2.60
2023-04-28T05:21:39.529Z,2.37
2023-04-28T05:24:06.520Z,2.50
2023-04-28T05:26:33.547Z,2.40
2023-04-28T05:29:00.436Z,2.20
2023-04-28T05:31:27.300Z,2.10
2023-04-28T05:33:54.122Z,2.40
2023-04-28T05:36:21.001Z,2.43
2023-04-28T05:38:47.845Z,2.73
2023-04-28T05:41:14.701Z,3.00
2023-04-28T05:43:41.582Z,2.70
2023-04-28T05:46:18.234Z,1.87
2023-04-28T05:48:49.002Z,2.03
2023-04-28T05:51:15.982Z,2.03
2023-04-28T05:53:42.849Z,1.50
2023-04-28T05:56:09.829Z,1.60
2023-04-28T05:58:36.790Z,1.70
2023-04-28T06:01:03.650Z,1.50
2023-04-28T06:03:30.665Z,1.73
2023-04-28T06:05:57.738Z,1.70
2023-04-28T06:08:24.606Z,1.50
2023-04-28T06:10:51.496Z,1.70
2023-04-28T06:13:18.451Z,1.70
2023-04-28T06:15:45.448Z,1.60
2023-04-28T06:18:12.402Z,1.50
2023-04-28T06:20:39.251Z,1.50
2023-04-28T06:23:06.966Z,1.40
2023-04-28T06:25:33.835Z,1.63
2023-04-28T06:28:00.751Z,1.60
2023-04-28T06:30:27.589Z,1.67
2023-04-28T06:32:54.766Z,1.63
2023-04-28T06:35:23.005Z,2.03
2023-04-28T06:37:49.829Z,1.60
2023-04-28T06:40:17.105Z,1.50
2023-04-28T06:42:43.989Z,1.40
2023-04-28T06:45:11.155Z,1.67
2023-04-28T06:47:38.829Z,1.40
2023-04-28T06:50:06.043Z,1.70
2023-04-28T06:52:38.421Z,1.67
2023-04-28T06:55:07.911Z,1.40
2023-04-28T06:57:34.781Z,1.60
2023-04-28T07:00:02.272Z,1.63
2023-04-28T07:02:29.201Z,1.37
2023-04-28T07:04:56.172Z,1.63
2023-04-28T07:07:23.017Z,1.50
2023-04-28T07:09:50.009Z,1.60
2023-04-28T07:12:16.828Z,1.13
2023-04-28T07:14:43.716Z,1.40
2023-04-28T07:17:11.044Z,1.50
2023-04-28T07:19:37.911Z,1.50
2023-04-28T07:22:04.797Z,1.30
2023-04-28T07:24:31.650Z,1.30
2023-04-28T07:26:58.633Z,1.47
2023-04-28T07:29:25.472Z,1.40
2023-04-28T07:31:52.308Z,1.50
2023-04-28T07:34:19.207Z,1.60
2023-04-28T07:36:46.066Z,1.53
2023-04-28T07:39:12.969Z,1.63
2023-04-28T07:41:41.532Z,1.07
2023-04-28T07:44:11.043Z,1.50
2023-04-28T07:46:38.283Z,1.40
2023-04-28T07:49:05.170Z,1.30
2023-04-28T07:51:31.969Z,1.30
2023-04-28T07:53:58.911Z,1.20
2023-04-28T07:56:26.433Z,1.30
2023-04-28T07:58:53.435Z,1.07
2023-04-28T08:01:20.376Z,1.10
2023-04-28T08:03:47.592Z,1.27
2023-04-28T08:06:14.730Z,1.33
2023-04-28T08:08:42.063Z,1.10
2023-04-28T08:11:08.891Z,1.13
2023-04-28T08:13:35.772Z,0.90
2023-04-28T08:16:02.712Z,1.10
2023-04-28T08:18:29.721Z,0.90
2023-04-28T08:20:56.552Z,0.90
2023-04-28T08:23:23.431Z,1.20
2023-04-28T08:25:50.480Z,1.13
2023-04-28T08:28:17.244Z,1.03
2023-04-28T08:30:44.280Z,1.27
2023-04-28T08:33:11.140Z,0.97
2023-04-28T08:35:38.110Z,0.93
2023-04-28T08:38:05.598Z,1.30
2023-04-28T08:40:32.432Z,1.10
2023-04-28T08:43:00.572Z,1.00
2023-04-28T08:45:31.022Z,0.80
2023-04-28T08:48:00.348Z,1.27
2023-04-28T08:50:28.978Z,1.10
2023-04-28T08:52:57.131Z,1.17
2023-04-28T08:55:24.125Z,1.10
2023-04-28T08:57:54.966Z,1.10
2023-04-28T09:00:21.900Z,1.20
2023-04-28T09:02:48.895Z,1.23
2023-04-28T09:05:16.061Z,1.20
2023-04-28T09:07:46.895Z,1.30
2023-04-28T09:10:24.898Z,1.13
2023-04-28T09:12:53.585Z,1.50
2023-04-28T09:15:31.792Z,1.10
2023-04-28T09:18:01.231Z,1.30
2023-04-28T09:20:29.470Z,1.20
2023-04-28T09:23:17.551Z,1.40
2023-04-28T09:26:03.743Z,1.17
2023-04-28T09:28:32.164Z,1.37
2023-04-28T09:30:59.171Z,1.40
2023-04-28T09:33:26.542Z,1.77
2023-04-28T09:35:54.245Z,1.27
2023-04-28T09:38:22.252Z,1.70
2023-04-28T09:41:02.153Z,1.80
2023-04-28T09:43:31.287Z,1.50
2023-04-28T09:46:02.759Z,1.67
2023-04-28T09:48:35.062Z,1.83
2023-04-28T09:51:04.769Z,1.70
2023-04-28T09:53:32.266Z,1.60
2023-04-28T09:56:01.352Z,1.87
2023-04-28T09:58:29.230Z,2.17
2023-04-28T10:00:58.206Z,2.40
2023-04-28T10:03:29.764Z,2.60
2023-04-28T10:05:58.813Z,2.60
2023-04-28T10:08:27.678Z,2.53
2023-04-28T10:10:54.969Z,2.50
2023-04-28T10:13:22.908Z,2.20
2023-04-28T10:15:51.694Z,2.70
2023-04-28T10:18:18.905Z,2.47
2023-04-28T10:20:50.202Z,2.50
2023-04-28T10:23:19.815Z,2.77
2023-04-28T10:25:49.176Z,2.70
2023-04-28T10:28:16.567Z,2.17
2023-04-28T10:30:43.404Z,2.70
2023-04-28T10:33:16.250Z,2.40
2023-04-28T10:35:45.390Z,2.20
2023-04-28T10:38:13.191Z,2.33
2023-04-28T10:40:40.981Z,2.40
2023-04-28T10:43:34.803Z,2.13
2023-04-28T10:46:04.103Z,2.30
2023-04-28T10:48:33.941Z,2.37
2023-04-28T10:51:06.270Z,2.60
2023-04-28T10:53:45.777Z,2.40
2023-04-28T10:56:19.883Z,2.03
2023-04-28T10:58:50.984Z,2.40
2023-04-28T11:01:26.639Z,2.37
2023-04-28T11:04:18.185Z,2.70
2023-04-28T11:07:11.408Z,2.40
2023-04-28T11:09:38.251Z,2.40
2023-04-28T11:12:11.349Z,2.27
2023-04-28T11:14:41.028Z,2.60
2023-04-28T11:17:09.841Z,2.30
2023-04-28T11:19:40.977Z,2.53
2023-04-28T11:22:20.227Z,2.20
2023-04-28T11:24:59.988Z,2.27
2023-04-28T11:27:28.127Z,2.57
2023-04-28T11:29:54.922Z,2.47
2023-04-28T11:32:32.584Z,2.40
2023-04-28T11:34:59.541Z,2.20
2023-04-28T11:37:27.406Z,2.53
2023-04-28T11:39:54.352Z,2.60
2023-04-28T11:42:21.291Z,2.60
2023-04-28T11:44:53.016Z,2.90
2023-04-28T11:47:33.960Z,2.97
2023-04-28T11:50:02.201Z,2.80
2023-04-28T11:52:29.375Z,2.80
2023-04-28T11:54:58.222Z,2.97
2023-04-28T11:57:25.612Z,3.03
2023-04-28T11:59:52.814Z,2.60
2023-04-28T12:02:29.902Z,2.50
2023-04-28T12:04:57.226Z,2.70
2023-04-28T12:07:24.940Z,3.17
2023-04-28T12:10:10.974Z,2.77
2023-04-28T12:15:08.456Z,2.77
2023-04-28T12:17:38.111Z,3.07
2023-04-28T12:20:07.406Z,2.30
2023-04-28T12:22:51.012Z,2.73
2023-04-28T12:25:22.374Z,3.00
2023-04-28T12:28:02.880Z,2.83
2023-04-28T12:30:32.591Z,2.53
2023-04-28T12:32:59.537Z,2.67
2023-04-28T12:35:28.009Z,2.40
2023-04-28T12:37:56.520Z,2.60
2023-04-28T12:40:24.645Z,2.63
2023-04-28T12:42:51.794Z,2.70
2023-04-28T12:45:18.791Z,2.57
2023-04-28T12:47:46.394Z,2.60
2023-04-28T12:50:13.632Z,2.20
2023-04-28T12:52:40.836Z,2.40
2023-04-28T12:55:08.438Z,2.70
2023-04-28T12:57:38.983Z,2.60
2023-04-28T13:00:07.782Z,2.10
2023-04-28T13:02:35.099Z,2.70
2023-04-28T13:05:02.258Z,2.80
2023-04-28T13:07:30.663Z,2.73
2023-04-28T13:09:58.673Z,2.73
2023-04-28T13:12:25.542Z,2.70
2023-04-28T13:14:52.630Z,2.77
2023-04-28T13:17:20.374Z,3.00
2023-04-28T13:19:47.954Z,3.20
2023-04-28T13:22:16.734Z,3.40
2023-04-28T13:24:43.927Z,3.23
2023-04-28T13:27:11.176Z,2.80
2023-04-28T13:29:38.300Z,3.00
2023-04-28T13:32:06.062Z,2.67
2023-04-28T13:34:33.258Z,2.73
2023-04-28T13:37:00.157Z,2.77
2023-04-28T13:39:26.965Z,2.60
2023-04-28T13:41:53.740Z,2.67
2023-04-28T13:44:21.229Z,3.07
2023-04-28T13:46:48.109Z,2.70
2023-04-28T13:49:14.972Z,2.63
2023-04-28T13:51:41.978Z,3.00
2023-04-28T13:54:10.691Z,3.07
2023-04-28T13:56:37.965Z,3.13
2023-04-28T13:59:05.067Z,2.90
2023-04-28T14:01:31.999Z,2.50
2023-04-28T14:03:59.236Z,2.90
2023-04-28T14:06:27.534Z,2.77
2023-04-28T14:08:54.394Z,2.47
2023-04-28T14:11:21.337Z,2.83
2023-04-28T14:13:48.203Z,2.80
2023-04-28T14:16:15.141Z,2.50
2023-04-28T14:18:42.026Z,2.47
2023-04-28T14:21:08.919Z,2.37
2023-04-28T14:23:35.828Z,2.90
2023-04-28T14:26:02.797Z,2.27
2023-04-28T14:28:29.920Z,2.30
2023-04-28T14:30:56.849Z,2.70
2023-04-28T14:33:24.449Z,2.83
2023-04-28T14:35:51.377Z,2.00
2023-04-28T14:38:18.186Z,2.33
2023-04-28T14:40:44.999Z,2.40
2023-04-28T14:43:11.888Z,2.17
2023-04-28T14:45:38.825Z,2.10
2023-04-28T14:48:07.716Z,1.97
2023-04-28T14:50:34.648Z,2.30
2023-04-28T14:53:05.720Z,2.27
2023-04-28T14:55:33.549Z,2.23
2023-04-28T14:58:00.380Z,2.10
2023-04-28T15:00:27.308Z,1.97
2023-04-28T15:02:54.382Z,2.23
2023-04-28T15:05:21.344Z,2.00
2023-04-28T15:07:48.305Z,2.37
2023-04-28T15:10:15.473Z,2.40
2023-04-28T15:12:43.074Z,2.23
2023-04-28T15:15:10.392Z,2.67
2023-04-28T15:17:37.244Z,2.47
2023-04-28T15:20:05.340Z,2.43
2023-04-28T15:22:32.228Z,2.33
2023-04-28T15:25:00.337Z,2.87
2023-04-28T15:27:27.203Z,2.03
2023-04-28T15:29:54.290Z,2.50
2023-04-28T15:32:21.684Z,2.10
2023-04-28T15:34:49.291Z,2.53
2023-04-28T15:37:38.133Z,2.40
2023-04-28T15:40:10.111Z,2.47
2023-04-28T15:42:37.890Z,2.50
2023-04-28T15:45:05.827Z,2.23
2023-04-28T15:47:33.214Z,2.07
2023-04-28T15:50:00.256Z,2.00
2023-04-28T15:52:27.639Z,1.93
2023-04-28T15:54:57.346Z,2.00
2023-04-28T15:57:24.308Z,2.20
2023-04-28T15:59:51.958Z,2.10
2023-04-28T16:02:19.295Z,1.97
2023-04-28T16:04:47.104Z,2.03
2023-04-28T16:07:14.311Z,1.83
2023-04-28T16:09:41.227Z,1.87
2023-04-28T16:12:08.776Z,2.00
2023-04-28T16:14:36.585Z,2.13
2023-04-28T16:17:03.738Z,2.20
2023-04-28T16:19:30.643Z,2.03
2023-04-28T16:21:57.496Z,2.40
2023-04-28T16:24:24.937Z,2.20
2023-04-28T16:26:52.145Z,2.10
2023-04-28T16:29:18.923Z,2.23
2023-04-28T16:31:46.002Z,2.20
2023-04-28T16:34:13.143Z,2.03
2023-04-28T16:36:40.382Z,2.07
2023-04-28T16:39:07.354Z,1.93
2023-04-28T16:41:34.319Z,1.90
2023-04-28T16:44:01.116Z,2.20
2023-04-28T16:46:28.040Z,1.73
2023-04-28T16:48:54.870Z,1.93
2023-04-28T16:51:22.265Z,2.13
2023-04-28T16:53:49.069Z,2.00
2023-04-28T16:56:17.165Z,1.93
2023-04-28T16:58:44.099Z,1.80
2023-04-28T17:01:11.162Z,2.10
2023-04-28T17:03:42.077Z,2.90
2023-04-28T17:06:09.445Z,2.30
2023-04-28T17:08:36.637Z,1.97
2023-04-28T17:11:04.685Z,2.33
2023-04-28T17:13:32.483Z,2.20
2023-04-28T17:16:00.517Z,2.20
2023-04-28T17:18:27.650Z,2.37
2023-04-28T17:20:54.870Z,2.50
2023-04-28T17:23:22.036Z,2.33
2023-04-28T17:25:48.946Z,2.50
2023-04-28T17:28:15.859Z,3.37
2023-04-28T17:30:47.201Z,2.60
2023-04-28T17:33:14.638Z,2.27
2023-04-28T17:35:41.599Z,3.07
2023-04-28T17:38:08.409Z,2.37
2023-04-28T17:40:35.305Z,3.00
2023-04-28T17:43:02.879Z,2.73
2023-04-28T17:45:29.999Z,1.83
2023-04-28T17:48:00.435Z,2.40
2023-04-28T17:50:27.462Z,1.53
2023-04-28T17:52:54.436Z,1.77
2023-04-28T17:55:21.515Z,1.73
2023-04-28T17:57:48.337Z,1.90
2023-04-28T18:00:15.569Z,1.97
2023-04-28T18:02:42.521Z,1.50
2023-04-28T18:05:09.629Z,1.43
2023-04-28T18:07:36.536Z,1.90
2023-04-28T18:10:03.680Z,1.73
2023-04-28T18:12:30.630Z,1.90
2023-04-28T18:14:58.156Z,2.47
2023-04-28T18:17:26.376Z,2.00
2023-04-28T18:19:57.030Z,2.30
2023-04-28T18:22:24.072Z,2.20
2023-04-28T18:24:51.484Z,1.90
2023-04-28T18:27:19.085Z,2.50
2023-04-28T18:29:45.958Z,2.17
2023-04-28T18:32:14.755Z,2.27
2023-04-28T18:34:43.485Z,2.00
2023-04-28T18:37:10.761Z,2.03
2023-04-28T18:39:37.587Z,1.77
2023-04-28T18:42:04.497Z,1.40
2023-04-28T18:44:31.445Z,1.80
2023-04-28T18:46:58.823Z,1.60
2023-04-28T18:49:25.950Z,1.47
2023-04-28T18:51:52.897Z,1.50
2023-04-28T18:54:19.954Z,1.17
2023-04-28T18:56:48.153Z,1.37
2023-04-28T18:59:15.099Z,1.30
2023-04-28T19:01:42.095Z,1.77
2023-04-28T19:04:09.360Z,1.40
2023-04-28T19:06:36.484Z,1.70
2023-04-28T19:09:03.443Z,1.20
2023-04-28T19:11:30.736Z,1.57
2023-04-28T19:13:58.313Z,1.30
2023-04-28T19:16:25.370Z,1.30
2023-04-28T19:18:52.276Z,1.60
2023-04-28T19:21:19.094Z,1.20
2023-04-28T19:23:46.324Z,1.37
2023-04-28T19:26:14.230Z,1.30
2023-04-28T19:28:43.741Z,1.53
2023-04-28T19:31:12.097Z,1.50
2023-04-28T19:33:39.497Z,1.50
2023-04-28T19:36:07.853Z,1.60
2023-04-28T19:38:35.777Z,1.70
2023-04-28T19:41:10.492Z,1.60
2023-04-28T19:43:39.210Z,1.80
2023-04-28T19:46:06.756Z,1.90
2023-04-28T19:48:37.488Z,1.50
2023-04-28T19:51:05.315Z,1.67
2023-04-28T19:53:32.788Z,1.50
2023-04-28T19:56:04.615Z,2.27
2023-04-28T19:58:38.731Z,3.60
2023-04-28T20:01:14.129Z,3.73
2023-04-28T20:03:42.254Z,4.53
2023-04-28T20:06:10.632Z,4.83
2023-04-28T20:08:39.183Z,4.60
2023-04-28T20:11:07.077Z,4.03
2023-04-28T20:13:35.075Z,3.70
2023-04-28T20:16:07.046Z,3.90
2023-04-28T20:18:35.530Z,3.13
2023-04-28T20:21:05.885Z,3.30
2023-04-28T20:23:33.019Z,3.20
2023-04-28T20:26:03.697Z,3.10
2023-04-28T20:28:33.716Z,2.67
2023-04-28T20:31:01.201Z,2.63
2023-04-28T20:33:28.032Z,2.43
2023-04-28T20:35:54.935Z,2.10
2023-04-28T20:38:21.781Z,2.00
2023-04-28T20:40:48.665Z,2.30
2023-04-28T20:43:15.507Z,2.10
2023-04-28T20:45:42.654Z,1.60
2023-04-28T20:48:09.606Z,1.80
2023-04-28T20:50:41.140Z,2.07
2023-04-28T20:53:08.121Z,2.43
2023-04-28T20:55:34.956Z,1.60
2023-04-28T20:58:02.087Z,1.33
2023-04-28T21:00:28.948Z,1.27
2023-04-28T21:02:56.138Z,1.63
2023-04-28T21:05:23.924Z,1.70
2023-04-28T21:07:51.026Z,1.70
2023-04-28T21:10:17.896Z,1.60
2023-04-28T21:12:45.841Z,1.40
2023-04-28T21:15:12.697Z,1.20
2023-04-28T21:17:39.796Z,1.30
2023-04-28T21:20:07.251Z,1.00
2023-04-28T21:22:34.438Z,1.83
2023-04-28T21:25:01.515Z,1.27
2023-04-28T21:27:28.325Z,1.30
2023-04-28T21:29:55.096Z,0.97
2023-04-28T21:32:22.017Z,1.00
2023-04-28T21:34:49.627Z,0.70
2023-04-28T21:37:16.622Z,1.20
2023-04-28T21:39:43.457Z,1.20
2023-04-28T21:42:10.287Z,1.03
2023-04-28T21:44:37.777Z,0.73
2023-04-28T21:47:04.581Z,1.17
2023-04-28T21:49:31.559Z,1.00
2023-04-28T21:51:58.453Z,0.80
2023-04-28T21:54:25.236Z,1.13
2023-04-28T21:56:52.282Z,0.90
2023-04-28T21:59:19.091Z,1.00
2023-04-28T22:01:46.160Z,0.93
2023-04-28T22:04:13.447Z,1.20
2023-04-28T22:06:40.658Z,1.10
2023-04-28T22:09:07.495Z,0.87
2023-04-28T22:11:34.352Z,0.80
2023-04-28T22:14:01.230Z,1.13
2023-04-28T22:16:28.382Z,1.30
2023-04-28T22:18:55.274Z,1.00
2023-04-28T22:21:22.073Z,0.83
2023-04-28T22:23:49.044Z,0.83
2023-04-28T22:26:16.018Z,1.23
2023-04-28T22:28:42.867Z,1.10
2023-04-28T22:31:09.694Z,1.10
2023-04-28T22:33:38.858Z,1.10
2023-04-28T22:36:06.036Z,1.00
2023-04-28T22:38:33.180Z,1.00
2023-04-28T22:40:59.947Z,1.03
2023-04-28T22:43:27.859Z,1.20
2023-04-28T22:45:54.710Z,1.37
2023-04-28T22:48:21.692Z,1.20
2023-04-28T22:50:49.680Z,1.13
2023-04-28T22:53:16.489Z,1.30
2023-04-28T22:55:43.644Z,1.83
2023-04-28T22:58:11.096Z,1.40
2023-04-28T23:00:38.200Z,1.60
2023-04-28T23:03:05.282Z,1.63
2023-04-28T23:05:32.232Z,2.03
2023-04-28T23:07:59.051Z,1.33
2023-04-28T23:10:26.260Z,1.70
2023-04-28T23:12:53.107Z,1.70
2023-04-28T23:15:20.056Z,1.90
2023-04-28T23:17:47.098Z,1.73
2023-04-28T23:20:14.084Z,1.90
2023-04-28T23:22:40.982Z,2.07
2023-04-28T23:25:08.328Z,2.60
2023-04-28T23:27:35.729Z,1.90
2023-04-28T23:30:02.560Z,2.00
2023-04-28T23:32:29.411Z,2.60
2023-04-28T23:34:56.351Z,2.23
2023-04-28T23:37:23.162Z,2.40
2023-04-28T23:39:50.168Z,2.40
2023-04-28T23:42:17.766Z,2.50
2023-04-28T23:44:44.634Z,2.73
2023-04-28T23:47:12.236Z,2.80
2023-04-28T23:49:39.090Z,2.63
2023-04-28T23:52:07.747Z,2.17
2023-04-28T23:54:34.627Z,2.50
2023-04-28T23:57:01.400Z,2.50
2023-04-28T23:59:29.027Z,2.60
